Time;durP1;ratioP1;P1;durP2;ratioP2;P2;SDS_P1;SDS_P2;PMS_P1;PMS_P2;Temp;Humidity;BMP_temperature;BMP_pressure;BME280_temperature;BME280_humidity;BME280_pressure;Samples;Min_cycle;Max_cycle;Signal;HPM_P1;HPM_P2
2022/05/08 00:00:33;;;;;;;5.50;1.92;;;19.30;55.70;;;;;;4498176;31;20129;-64
2022/05/08 00:03:00;;;;;;;6.22;1.80;;;19.30;55.60;;;;;;4484617;31;20144;-64
2022/05/08 00:05:26;;;;;;;3.63;1.55;;;19.30;55.70;;;;;;4471754;31;20125;-64
2022/05/08 00:07:53;;;;;;;5.05;1.98;;;19.30;55.60;;;;;;4497707;31;20541;-64
2022/05/08 00:10:19;;;;;;;4.90;1.30;;;19.20;55.60;;;;;;4497551;31;20528;-64
2022/05/08 00:12:45;;;;;;;3.38;1.73;;;19.20;55.60;;;;;;4499265;31;20137;-64
2022/05/08 00:15:12;;;;;;;5.57;1.80;;;19.20;55.50;;;;;;4497136;31;20594;-64
2022/05/08 00:17:37;;;;;;;3.22;1.40;;;19.20;55.50;;;;;;4497945;31;20131;-64
2022/05/08 00:20:06;;;;;;;4.00;1.73;;;19.20;55.50;;;;;;4484166;31;20132;-65
2022/05/08 00:22:32;;;;;;;3.45;1.50;;;19.20;55.50;;;;;;4498895;31;20273;-64
2022/05/08 00:25:02;;;;;;;5.28;2.00;;;19.20;55.50;;;;;;4484130;31;20259;-64
2022/05/08 00:27:28;;;;;;;5.63;1.80;;;19.20;55.50;;;;;;4498547;31;20182;-64
2022/05/08 00:29:53;;;;;;;4.15;1.42;;;19.20;55.50;;;;;;4497872;31;20105;-64
2022/05/08 00:32:21;;;;;;;4.93;1.73;;;19.20;55.50;;;;;;4484111;31;20187;-64
2022/05/08 00:34:47;;;;;;;3.17;1.65;;;19.20;55.50;;;;;;4498308;31;20136;-64
2022/05/08 00:37:13;;;;;;;3.58;1.30;;;19.20;55.50;;;;;;4498679;31;20124;-64
2022/05/08 00:39:39;;;;;;;5.95;1.55;;;19.20;55.50;;;;;;4484887;31;20180;-64
2022/05/08 00:42:05;;;;;;;3.45;1.33;;;19.20;55.50;;;;;;4485002;31;20143;-64
2022/05/08 00:44:31;;;;;;;2.83;1.38;;;19.20;55.50;;;;;;4497703;31;20185;-64
2022/05/08 00:46:57;;;;;;;4.53;1.65;;;19.10;55.40;;;;;;4498307;31;20127;-64
2022/05/08 00:49:23;;;;;;;5.40;1.50;;;19.10;55.40;;;;;;4484221;31;20408;-64
2022/05/08 00:51:49;;;;;;;3.72;1.70;;;19.10;55.40;;;;;;4485047;31;20124;-64
2022/05/08 00:54:16;;;;;;;2.58;1.38;;;19.10;55.40;;;;;;4484004;31;20140;-64
2022/05/08 00:56:43;;;;;;;5.20;1.63;;;19.10;55.40;;;;;;4497882;31;20222;-64
2022/05/08 00:59:10;;;;;;;3.97;1.40;;;19.10;55.40;;;;;;4497682;31;20142;-64
2022/05/08 01:01:36;;;;;;;3.35;1.52;;;19.10;55.40;;;;;;4497483;31;20132;-65
2022/05/08 01:04:02;;;;;;;2.97;1.38;;;19.10;55.40;;;;;;4497972;31;20477;-64
2022/05/08 01:06:30;;;;;;;4.80;1.70;;;19.10;55.40;;;;;;4498053;31;20133;-64
2022/05/08 01:08:56;;;;;;;4.53;1.77;;;19.10;55.40;;;;;;4484321;31;20147;-64
2022/05/08 01:11:23;;;;;;;2.70;1.63;;;19.10;55.40;;;;;;4484076;31;20129;-64
2022/05/08 01:13:50;;;;;;;3.88;1.38;;;19.10;55.40;;;;;;4497469;31;20129;-64
2022/05/08 01:16:18;;;;;;;3.75;1.60;;;19.10;55.40;;;;;;4498291;31;20258;-64
2022/05/08 01:18:45;;;;;;;3.08;1.30;;;19.10;55.30;;;;;;4484149;31;20237;-64
2022/05/08 01:21:16;;;;;;;2.67;1.30;;;19.10;55.40;;;;;;4497682;31;20138;-64
2022/05/08 01:23:43;;;;;;;4.00;1.63;;;19.10;55.40;;;;;;4496482;31;20132;-64
2022/05/08 01:26:09;;;;;;;3.50;1.55;;;19.10;55.40;;;;;;4484544;31;20148;-64
2022/05/08 01:28:35;;;;;;;5.25;1.65;;;19.10;55.40;;;;;;4483668;31;20135;-64
2022/05/08 01:31:01;;;;;;;3.88;1.40;;;19.10;55.40;;;;;;4484105;31;20120;-64
2022/05/08 01:33:28;;;;;;;3.28;1.40;;;19.10;55.40;;;;;;4497000;31;20124;-64
2022/05/08 01:35:54;;;;;;;3.53;1.40;;;19.00;55.30;;;;;;4496992;31;20145;-64
2022/05/08 01:38:22;;;;;;;4.30;1.60;;;19.00;55.30;;;;;;4484322;31;20205;-64
2022/05/08 01:40:50;;;;;;;3.17;1.33;;;19.00;55.30;;;;;;4497752;31;20180;-64
2022/05/08 01:43:16;;;;;;;3.17;1.35;;;19.00;55.40;;;;;;4497239;31;20262;-64
2022/05/08 01:45:42;;;;;;;3.05;1.42;;;19.00;55.30;;;;;;4496649;31;20121;-64
2022/05/08 01:48:26;;;;;;;3.22;1.30;;;19.00;55.30;;;;;;4497157;31;20827;-63
2022/05/08 01:50:53;;;;;;;4.38;1.55;;;19.00;55.30;;;;;;4496983;31;20279;-64
2022/05/08 01:53:21;;;;;;;3.03;1.55;;;19.00;55.30;;;;;;4496153;31;20137;-64
2022/05/08 01:55:49;;;;;;;3.25;1.27;;;19.00;55.30;;;;;;4484153;31;20136;-64
2022/05/08 01:58:17;;;;;;;4.28;1.33;;;19.00;55.30;;;;;;4483597;31;20155;-64
2022/05/08 02:00:44;;;;;;;2.65;1.30;;;19.00;55.30;;;;;;4483824;31;20149;-64
2022/05/08 02:03:11;;;;;;;3.13;1.35;;;19.00;55.30;;;;;;4483319;31;20245;-64
2022/05/08 02:05:39;;;;;;;3.72;1.30;;;19.00;55.30;;;;;;4483742;31;20159;-64
2022/05/08 02:08:06;;;;;;;4.10;1.58;;;19.00;55.30;;;;;;4496834;31;20140;-64
2022/05/08 02:10:31;;;;;;;2.25;1.30;;;19.00;55.40;;;;;;4496299;31;20286;-64
2022/05/08 02:12:57;;;;;;;2.72;1.20;;;18.90;55.30;;;;;;4498123;31;20128;-64
2022/05/08 02:15:29;;;;;;;5.07;1.27;;;18.90;55.30;;;;;;4496209;31;20121;-64
2022/05/08 02:17:57;;;;;;;2.90;1.30;;;18.90;55.30;;;;;;4496846;31;20140;-64
2022/05/08 02:20:24;;;;;;;2.33;1.00;;;18.90;55.30;;;;;;4496143;31;20132;-64
2022/05/08 02:22:51;;;;;;;3.10;1.38;;;18.90;55.30;;;;;;4483587;31;20137;-64
2022/05/08 02:25:17;;;;;;;2.58;1.10;;;18.90;55.30;;;;;;4496587;31;20342;-64
2022/05/08 02:27:46;;;;;;;4.30;1.58;;;18.90;55.30;;;;;;4496052;31;20152;-63
2022/05/08 02:30:12;;;;;;;2.25;1.40;;;18.90;55.30;;;;;;4496996;31;20145;-64
2022/05/08 02:32:39;;;;;;;3.00;1.05;;;18.90;55.30;;;;;;4482638;32;20187;-63
2022/05/08 02:35:07;;;;;;;2.67;1.17;;;18.90;55.20;;;;;;4496692;32;20623;-64
2022/05/08 02:37:33;;;;;;;3.15;1.20;;;18.90;55.20;;;;;;4497167;31;20202;-64
2022/05/08 02:39:59;;;;;;;4.07;1.20;;;18.90;55.20;;;;;;4483489;32;20133;-64
2022/05/08 02:42:27;;;;;;;1.48;1.15;;;18.80;55.10;;;;;;4496651;32;20182;-64
2022/05/08 02:44:53;;;;;;;4.22;1.40;;;18.90;55.20;;;;;;4497191;31;20251;-63
2022/05/08 02:47:19;;;;;;;2.47;1.20;;;18.80;55.10;;;;;;4496889;32;20600;-64
2022/05/08 02:49:45;;;;;;;4.00;1.45;;;18.90;55.20;;;;;;4495872;32;20117;-63
2022/05/08 02:52:11;;;;;;;1.95;1.08;;;18.80;55.10;;;;;;4497566;31;20124;-63
2022/05/08 02:54:36;;;;;;;3.58;1.50;;;18.80;55.10;;;;;;4495573;32;20121;-64
2022/05/08 02:59:48;;;;;;;2.50;1.08;;;18.80;55.10;;;;;;4496985;32;20120;-63
2022/05/08 03:02:14;;;;;;;3.05;1.30;;;18.80;55.10;;;;;;4495733;32;20146;-63
2022/05/08 03:04:39;;;;;;;2.08;1.08;;;18.80;55.10;;;;;;4483410;32;20129;-64
2022/05/08 03:07:06;;;;;;;2.25;1.17;;;18.80;55.10;;;;;;4496768;31;20128;-63
2022/05/08 03:09:31;;;;;;;2.75;1.30;;;18.80;55.10;;;;;;4483274;32;20786;-64
2022/05/08 03:11:57;;;;;;;2.97;1.25;;;18.80;55.10;;;;;;4495770;32;20274;-64
2022/05/08 03:14:26;;;;;;;2.67;1.10;;;18.80;55.10;;;;;;4496225;32;20125;-64
2022/05/08 03:16:52;;;;;;;1.98;0.90;;;18.80;55.10;;;;;;4497715;32;20136;-64
2022/05/08 03:19:19;;;;;;;2.53;1.02;;;18.80;55.10;;;;;;4482322;32;20148;-64
2022/05/08 03:21:48;;;;;;;3.38;1.35;;;18.80;55.10;;;;;;4483567;32;20183;-64
2022/05/08 03:24:14;;;;;;;2.60;1.35;;;18.80;55.10;;;;;;4482791;32;20125;-64
2022/05/08 03:26:40;;;;;;;2.90;1.20;;;18.70;55.10;;;;;;4483129;32;20128;-64
2022/05/08 03:29:07;;;;;;;2.38;1.10;;;18.70;55.10;;;;;;4482913;32;20202;-64
2022/05/08 03:31:34;;;;;;;2.13;1.23;;;18.70;55.10;;;;;;4484194;31;20136;-64
2022/05/08 03:34:00;;;;;;;2.67;1.10;;;18.70;55.10;;;;;;4486286;31;20202;-64
2022/05/08 03:36:26;;;;;;;1.98;0.90;;;18.70;55.10;;;;;;4485258;31;20529;-63
2022/05/08 03:38:52;;;;;;;1.92;1.13;;;18.70;55.10;;;;;;4486168;31;20148;-64
2022/05/08 03:41:19;;;;;;;1.80;0.90;;;18.70;55.10;;;;;;4485365;31;20258;-64
2022/05/08 03:43:47;;;;;;;1.88;1.15;;;18.70;55.10;;;;;;4498996;31;20140;-64
2022/05/08 03:46:14;;;;;;;2.65;1.27;;;18.70;55.00;;;;;;4498592;31;20124;-64
2022/05/08 03:48:40;;;;;;;2.33;1.17;;;18.70;55.00;;;;;;4499731;31;20141;-64
2022/05/08 03:51:05;;;;;;;1.73;0.90;;;18.70;55.10;;;;;;4499043;31;20171;-64
2022/05/08 03:53:31;;;;;;;2.53;1.08;;;18.70;55.00;;;;;;4498054;31;20263;-64
2022/05/08 03:55:57;;;;;;;2.70;1.00;;;18.70;55.10;;;;;;4498783;31;20507;-64
2022/05/08 03:58:23;;;;;;;2.10;0.90;;;18.70;55.00;;;;;;4484961;31;20128;-64
2022/05/08 04:00:50;;;;;;;1.30;0.88;;;18.70;55.00;;;;;;4485775;31;20147;-64
2022/05/08 04:03:16;;;;;;;1.73;0.95;;;18.70;55.00;;;;;;4485324;31;20137;-64
2022/05/08 04:05:41;;;;;;;2.78;0.90;;;18.70;55.00;;;;;;4498476;31;20204;-64
2022/05/08 04:08:07;;;;;;;3.85;1.10;;;18.70;55.00;;;;;;4498658;31;20147;-64
2022/05/08 04:10:33;;;;;;;1.83;0.80;;;18.60;55.00;;;;;;4499216;31;20292;-64
2022/05/08 04:12:59;;;;;;;2.83;1.00;;;18.60;54.90;;;;;;4499070;31;20117;-64
2022/05/08 04:18:10;;;;;;;2.22;1.13;;;18.60;54.90;;;;;;4498500;31;20191;-64
2022/05/08 04:20:36;;;;;;;2.08;0.80;;;18.60;55.00;;;;;;4484786;31;20158;-64
2022/05/08 04:25:49;;;;;;;1.60;0.88;;;18.60;55.00;;;;;;4498601;31;20128;-64
2022/05/08 04:28:16;;;;;;;1.58;0.90;;;18.60;55.00;;;;;;4497768;31;20611;-64
2022/05/08 04:30:42;;;;;;;3.08;1.05;;;18.60;55.00;;;;;;4499249;31;20522;-64
2022/05/08 04:33:08;;;;;;;1.58;0.93;;;18.60;55.00;;;;;;4497819;31;20137;-64
2022/05/08 04:35:33;;;;;;;2.95;1.00;;;18.60;55.00;;;;;;4485034;31;20148;-64
2022/05/08 04:37:59;;;;;;;3.03;0.80;;;18.60;55.00;;;;;;4498060;31;20133;-64
2022/05/08 04:40:26;;;;;;;2.00;0.80;;;18.60;55.00;;;;;;4484287;31;20127;-64
2022/05/08 04:42:52;;;;;;;2.13;1.10;;;18.60;55.00;;;;;;4497372;31;20264;-64
2022/05/08 04:45:18;;;;;;;1.90;1.00;;;18.60;55.00;;;;;;4498310;31;20286;-64
2022/05/08 04:47:44;;;;;;;0.90;0.70;;;18.60;55.00;;;;;;4485040;31;20132;-64
2022/05/08 04:50:10;;;;;;;1.98;0.95;;;18.60;55.00;;;;;;4498599;31;20186;-64
2022/05/08 04:52:36;;;;;;;1.50;0.80;;;18.50;54.90;;;;;;4484749;31;20135;-64
2022/05/08 04:55:03;;;;;;;1.60;0.80;;;18.60;55.00;;;;;;4498613;31;20263;-64
2022/05/08 04:57:30;;;;;;;3.22;0.75;;;18.60;55.00;;;;;;4484479;31;20132;-64
2022/05/08 04:59:57;;;;;;;1.52;0.88;;;18.50;55.00;;;;;;4498152;31;20273;-64
2022/05/08 05:02:24;;;;;;;2.15;0.90;;;18.50;54.90;;;;;;4497025;31;20374;-64
2022/05/08 05:04:50;;;;;;;1.95;0.70;;;18.50;54.90;;;;;;4484912;31;20140;-64
2022/05/08 05:07:16;;;;;;;1.73;0.65;;;18.50;54.90;;;;;;4484051;31;20353;-64
2022/05/08 05:09:42;;;;;;;1.58;0.73;;;18.50;54.90;;;;;;4497589;31;20152;-64
2022/05/08 05:12:08;;;;;;;2.38;0.77;;;18.50;54.90;;;;;;4484366;31;20120;-64
2022/05/08 05:14:34;;;;;;;1.80;0.82;;;18.50;54.90;;;;;;4483918;31;20191;-64
2022/05/08 05:17:00;;;;;;;1.92;1.00;;;18.50;54.90;;;;;;4497923;31;20464;-64
2022/05/08 05:19:27;;;;;;;2.53;0.85;;;18.50;54.90;;;;;;4483655;31;20144;-64
2022/05/08 05:21:53;;;;;;;2.53;0.80;;;18.50;55.00;;;;;;4497548;31;20132;-64
2022/05/08 05:24:19;;;;;;;1.95;0.70;;;18.50;54.90;;;;;;4496708;31;20143;-64
2022/05/08 05:26:45;;;;;;;2.78;0.88;;;18.50;54.90;;;;;;4484355;31;20151;-64
2022/05/08 05:29:11;;;;;;;1.42;0.80;;;18.50;54.90;;;;;;4483993;31;20128;-64
2022/05/08 05:31:37;;;;;;;1.00;0.70;;;18.50;54.90;;;;;;4496934;31;20124;-64
2022/05/08 05:34:03;;;;;;;2.10;0.70;;;18.50;54.90;;;;;;4484611;31;20267;-63
2022/05/08 05:36:28;;;;;;;2.22;0.98;;;18.50;54.90;;;;;;4483284;31;20121;-63
2022/05/08 05:38:54;;;;;;;1.45;0.90;;;18.50;54.90;;;;;;4484469;31;20254;-64
2022/05/08 05:41:20;;;;;;;1.98;0.85;;;18.50;54.90;;;;;;4483528;31;20125;-64
2022/05/08 05:43:46;;;;;;;2.00;0.80;;;18.50;54.90;;;;;;4497195;31;20150;-64
2022/05/08 05:48:56;;;;;;;1.52;0.63;;;18.50;54.90;;;;;;4496612;31;20193;-64
2022/05/08 05:51:22;;;;;;;1.42;0.70;;;18.50;54.90;;;;;;4497260;31;20140;-64
2022/05/08 05:53:48;;;;;;;3.25;0.90;;;18.50;54.90;;;;;;4482896;31;20121;-63
2022/05/08 05:56:14;;;;;;;1.70;0.70;;;18.50;54.90;;;;;;4483812;31;20637;-64
2022/05/08 05:58:39;;;;;;;0.95;0.60;;;18.50;54.90;;;;;;4483261;31;20509;-63
2022/05/08 06:01:05;;;;;;;1.10;0.68;;;18.50;55.00;;;;;;4483828;31;20139;-64
2022/05/08 06:03:33;;;;;;;1.60;0.90;;;18.50;54.90;;;;;;4496808;31;20155;-64
2022/05/08 06:05:58;;;;;;;1.17;0.70;;;18.50;55.00;;;;;;4497540;31;20147;-64
2022/05/08 06:08:24;;;;;;;1.42;0.70;;;18.50;54.90;;;;;;4497139;31;20129;-64
2022/05/08 06:10:51;;;;;;;1.05;0.70;;;18.50;55.00;;;;;;4483026;31;20242;-64
2022/05/08 06:13:17;;;;;;;1.98;0.73;;;18.50;54.90;;;;;;4497021;31;20132;-64
2022/05/08 06:15:43;;;;;;;1.50;0.80;;;18.50;54.90;;;;;;4483047;31;20140;-64
2022/05/08 06:18:09;;;;;;;2.72;0.85;;;18.50;54.90;;;;;;4483961;31;20125;-64
2022/05/08 06:20:35;;;;;;;1.45;0.70;;;18.50;54.90;;;;;;4483186;31;20128;-64
2022/05/08 06:23:01;;;;;;;1.15;0.75;;;18.50;54.90;;;;;;4497095;31;20120;-64
2022/05/08 06:25:27;;;;;;;2.13;1.05;;;18.50;54.90;;;;;;4496664;31;20181;-64
2022/05/08 06:27:52;;;;;;;1.58;0.80;;;18.50;54.90;;;;;;4482808;31;20144;-64
2022/05/08 06:30:19;;;;;;;1.40;0.70;;;18.50;54.90;;;;;;4497050;31;20134;-63
2022/05/08 06:32:44;;;;;;;1.92;0.90;;;18.50;54.90;;;;;;4496000;31;20258;-64
2022/05/08 06:35:10;;;;;;;1.85;0.60;;;18.50;54.90;;;;;;4483530;32;20210;-64
2022/05/08 06:37:36;;;;;;;3.67;0.63;;;18.50;54.90;;;;;;4497379;31;20125;-64
2022/05/08 06:40:02;;;;;;;1.65;0.70;;;18.50;54.80;;;;;;4497514;32;20231;-64
2022/05/08 06:42:28;;;;;;;2.40;0.75;;;18.60;54.90;;;;;;4496634;32;20274;-64
2022/05/08 06:44:54;;;;;;;2.13;0.73;;;18.50;54.80;;;;;;4495919;32;20125;-64
2022/05/08 06:47:20;;;;;;;0.88;0.63;;;18.50;54.80;;;;;;4483702;32;20172;-64
2022/05/08 06:49:46;;;;;;;2.63;0.90;;;18.50;54.80;;;;;;4482762;32;20183;-64
2022/05/08 06:52:11;;;;;;;1.63;0.70;;;18.50;54.80;;;;;;4483538;32;20238;-64
2022/05/08 06:54:37;;;;;;;2.03;0.70;;;18.50;54.90;;;;;;4482519;32;20135;-63
2022/05/08 06:57:04;;;;;;;1.52;0.50;;;18.50;54.90;;;;;;4483222;32;20132;-64
2022/05/08 07:02:15;;;;;;;2.90;0.93;;;18.50;54.80;;;;;;4511203;31;20116;-64
2022/05/08 07:04:41;;;;;;;2.72;0.70;;;18.50;54.80;;;;;;4498972;31;20258;-63
2022/05/08 07:07:07;;;;;;;2.22;0.88;;;18.50;54.80;;;;;;4500157;31;20205;-63
2022/05/08 07:09:35;;;;;;;2.88;0.60;;;18.50;54.90;;;;;;4514740;31;20154;-63
2022/05/08 07:12:01;;;;;;;2.83;1.15;;;18.50;54.80;;;;;;4501630;31;20173;-63
2022/05/08 07:14:27;;;;;;;4.43;1.17;;;18.50;54.50;;;;;;4501489;31;20138;-63
2022/05/08 07:16:53;;;;;;;3.00;0.90;;;18.50;54.10;;;;;;4502373;31;20128;-63
2022/05/08 07:19:19;;;;;;;3.13;1.30;;;18.50;53.80;;;;;;4501394;31;20135;-62
2022/05/08 07:21:45;;;;;;;4.50;1.00;;;18.50;53.70;;;;;;4502231;31;20668;-62
2022/05/08 07:24:11;;;;;;;7.13;0.98;;;18.60;53.70;;;;;;4515427;31;20200;-63
2022/05/08 07:26:37;;;;;;;6.97;1.42;;;18.60;53.80;;;;;;4515151;31;20267;-63
2022/05/08 07:29:04;;;;;;;4.15;1.33;;;18.60;53.80;;;;;;4501638;31;20129;-62
2022/05/08 07:31:31;;;;;;;6.72;1.20;;;18.60;53.70;;;;;;4500951;31;20132;-63
2022/05/08 07:36:42;;;;;;;4.22;1.10;;;18.70;53.70;;;;;;4513830;31;20213;-62
2022/05/08 07:39:08;;;;;;;6.63;1.48;;;18.70;53.50;;;;;;4514537;31;20116;-63
2022/05/08 07:41:34;;;;;;;5.70;1.50;;;18.60;53.20;;;;;;4513829;31;20155;-62
2022/05/08 07:44:00;;;;;;;5.05;1.50;;;18.70;53.30;;;;;;4501283;31;20124;-63
2022/05/08 07:46:26;;;;;;;8.73;1.58;;;18.70;53.20;;;;;;4515781;31;20125;-63
2022/05/08 07:48:53;;;;;;;6.70;1.23;;;18.70;52.90;;;;;;4515117;31;20140;-63
2022/05/08 07:51:19;;;;;;;5.50;1.42;;;18.70;52.70;;;;;;4501582;31;20740;-63
2022/05/08 07:53:45;;;;;;;7.78;1.20;;;18.70;52.60;;;;;;4500611;31;20128;-62
2022/05/08 07:56:10;;;;;;;6.32;1.20;;;18.70;52.60;;;;;;4501224;31;20136;-63
2022/05/08 07:58:36;;;;;;;5.53;1.60;;;18.70;52.50;;;;;;4500945;31;20647;-63
2022/05/08 08:01:03;;;;;;;5.75;1.38;;;18.70;52.30;;;;;;4501483;31;20116;-64
2022/05/08 08:03:31;;;;;;;5.70;1.60;;;18.70;52.20;;;;;;4514276;31;20148;-63
2022/05/08 08:05:58;;;;;;;5.38;1.50;;;18.70;52.20;;;;;;4500975;31;20140;-63
2022/05/08 08:08:25;;;;;;;5.40;1.58;;;18.70;52.10;;;;;;4514913;31;20143;-63
2022/05/08 08:11:03;;;;;;;5.13;1.42;;;18.70;52.10;;;;;;4513700;31;20135;-63
2022/05/08 08:13:31;;;;;;;5.80;1.45;;;18.70;52.00;;;;;;4514459;31;20125;-63
2022/05/08 08:15:59;;;;;;;6.50;1.67;;;18.70;51.90;;;;;;4513862;31;20143;-63
2022/05/08 08:18:25;;;;;;;5.97;1.70;;;18.80;51.90;;;;;;4513780;31;20136;-63
2022/05/08 08:20:50;;;;;;;9.25;1.98;;;18.80;51.90;;;;;;4514363;31;20185;-62
2022/05/08 08:23:16;;;;;;;6.38;1.23;;;18.80;51.80;;;;;;4513759;31;20140;-64
2022/05/08 08:25:43;;;;;;;6.82;1.60;;;18.80;51.70;;;;;;4501181;31;20134;-64
2022/05/08 08:28:09;;;;;;;6.30;1.40;;;18.80;51.60;;;;;;4513614;31;20254;-63
2022/05/08 08:30:35;;;;;;;4.05;1.33;;;18.90;51.60;;;;;;4500765;31;20371;-62
2022/05/08 08:33:01;;;;;;;6.00;1.50;;;19.00;51.40;;;;;;4500514;31;20121;-63
2022/05/08 08:35:27;;;;;;;6.07;1.58;;;19.00;51.40;;;;;;4500842;31;20176;-63
2022/05/08 08:37:53;;;;;;;6.55;1.55;;;19.00;51.40;;;;;;4500727;31;20128;-63
2022/05/08 08:40:20;;;;;;;9.02;2.20;;;19.00;51.30;;;;;;4513347;31;20179;-62
2022/05/08 08:42:46;;;;;;;5.97;1.70;;;19.00;51.30;;;;;;4501087;31;20265;-62
2022/05/08 08:48:03;;;;;;;9.40;1.77;;;19.10;51.00;;;;;;4514847;31;20270;-63
2022/05/08 08:50:29;;;;;;;9.23;1.58;;;19.10;50.60;;;;;;4513716;31;20128;-63
2022/05/08 08:53:01;;;;;;;5.43;1.35;;;19.10;50.60;;;;;;4514351;31;20137;-63
2022/05/08 08:55:27;;;;;;;4.93;1.40;;;19.10;50.40;;;;;;4500809;31;20132;-63
2022/05/08 08:57:53;;;;;;;7.38;2.22;;;19.20;50.40;;;;;;4499702;31;20246;-62
2022/05/08 09:00:21;;;;;;;6.82;1.75;;;19.20;50.30;;;;;;4513782;31;20124;-63
2022/05/08 09:02:48;;;;;;;7.32;1.63;;;19.20;50.20;;;;;;4513380;31;20143;-63
2022/05/08 09:05:14;;;;;;;6.53;1.85;;;19.20;50.00;;;;;;4513696;31;20274;-63
2022/05/08 09:07:42;;;;;;;5.75;1.77;;;19.20;50.00;;;;;;4514456;31;20154;-63
2022/05/08 09:10:11;;;;;;;8.13;1.85;;;19.20;49.90;;;;;;4513112;31;20132;-63
2022/05/08 09:13:02;;;;;;;9.35;1.50;;;19.30;49.70;;;;;;4513804;31;20129;-63
2022/05/08 09:15:36;;;;;;;8.13;1.60;;;19.30;49.50;;;;;;4509309;31;20144;-63
2022/05/08 09:18:06;;;;;;;9.38;1.77;;;19.30;49.50;;;;;;4513362;31;20113;-63
2022/05/08 09:20:41;;;;;;;8.63;1.83;;;19.30;49.40;;;;;;4513302;31;20121;-63
2022/05/08 09:23:23;;;;;;;6.57;1.60;;;19.40;49.30;;;;;;4512764;31;20121;-63
2022/05/08 09:26:02;;;;;;;5.93;1.52;;;19.30;49.30;;;;;;4521736;31;20608;-63
2022/05/08 09:28:37;;;;;;;7.18;1.73;;;19.30;49.40;;;;;;4497069;31;20144;-63
2022/05/08 09:31:07;;;;;;;7.20;1.95;;;19.30;49.40;;;;;;4512942;31;20140;-63
2022/05/08 09:33:37;;;;;;;7.88;1.60;;;19.30;49.10;;;;;;4513270;31;20150;-63
2022/05/08 09:36:09;;;;;;;6.57;1.98;;;19.30;49.10;;;;;;4512559;31;20131;-63
2022/05/08 09:38:50;;;;;;;5.35;1.58;;;19.30;49.00;;;;;;4513496;31;20144;-63
2022/05/08 09:41:26;;;;;;;8.02;1.88;;;19.40;49.00;;;;;;4513691;31;20266;-64
2022/05/08 09:43:57;;;;;;;6.70;1.80;;;19.40;49.10;;;;;;4513027;31;20132;-64
2022/05/08 09:46:23;;;;;;;4.95;1.65;;;19.30;49.10;;;;;;4513097;31;20132;-64
2022/05/08 09:48:50;;;;;;;8.10;1.83;;;19.30;49.00;;;;;;4499043;31;20274;-64
2022/05/08 09:51:16;;;;;;;8.25;1.55;;;19.30;49.00;;;;;;4513214;31;20138;-64
2022/05/08 09:53:46;;;;;;;8.55;1.73;;;19.30;48.90;;;;;;4512199;31;20217;-64
2022/05/08 09:56:13;;;;;;;5.72;1.60;;;19.40;48.90;;;;;;4512591;31;20152;-64
2022/05/08 09:58:40;;;;;;;6.03;1.65;;;19.40;48.80;;;;;;4499334;31;20588;-64
2022/05/08 10:01:07;;;;;;;5.45;1.42;;;19.40;48.90;;;;;;4494312;31;20237;-64
2022/05/08 10:03:33;;;;;;;8.23;1.83;;;19.40;48.80;;;;;;4482917;31;20205;-64
2022/05/08 10:06:00;;;;;;;5.80;1.80;;;19.40;48.90;;;;;;4495642;31;20167;-64
2022/05/08 10:08:38;;;;;;;7.85;1.88;;;19.40;48.90;;;;;;4496744;31;20540;-64
2022/05/08 10:16:53;;;;;;;6.28;1.20;;;19.40;48.70;;;;;;4512993;31;20140;-64
2022/05/08 10:19:25;;;;;;;8.55;1.58;;;19.40;48.30;;;;;;4511929;31;20136;-64
2022/05/08 10:21:56;;;;;;;7.05;1.60;;;19.40;48.60;;;;;;4513734;31;20325;-64
2022/05/08 10:24:31;;;;;;;8.40;1.65;;;19.40;48.60;;;;;;4512937;31;20181;-63
2022/05/08 10:27:14;;;;;;;4.43;1.33;;;19.40;48.30;;;;;;4507374;31;20188;-64
2022/05/08 10:30:03;;;;;;;8.73;1.63;;;19.50;48.30;;;;;;4484632;31;20300;-64
2022/05/08 10:32:32;;;;;;;5.47;1.60;;;19.50;48.40;;;;;;4497052;31;20585;-64
2022/05/08 10:35:18;;;;;;;9.30;2.10;;;19.50;48.40;;;;;;4496440;31;20141;-64
2022/05/08 10:38:03;;;;;;;6.07;1.65;;;19.50;48.30;;;;;;4496638;31;20625;-64
2022/05/08 10:40:34;;;;;;;5.28;1.52;;;19.50;48.30;;;;;;4498418;31;20134;-64
2022/05/08 10:43:28;;;;;;;5.72;1.60;;;19.50;48.30;;;;;;4501097;31;20371;-65
2022/05/08 10:45:55;;;;;;;4.78;1.38;;;19.50;48.30;;;;;;4487309;31;20275;-65
2022/05/08 10:48:22;;;;;;;6.15;1.42;;;19.50;48.30;;;;;;4486626;31;20723;-65
2022/05/08 10:50:54;;;;;;;6.57;1.48;;;19.50;48.40;;;;;;4502773;31;20143;-64
2022/05/08 10:53:22;;;;;;;5.53;1.30;;;19.50;48.40;;;;;;4499402;31;20168;-64
2022/05/08 10:55:49;;;;;;;8.98;1.80;;;19.50;48.40;;;;;;4499559;31;20143;-65
2022/05/08 10:58:14;;;;;;;7.55;1.98;;;19.50;48.20;;;;;;4511633;31;20219;-69
2022/05/08 11:00:40;;;;;;;8.80;1.58;;;19.50;48.20;;;;;;4494480;31;20270;-64
2022/05/08 11:03:06;;;;;;;6.45;1.90;;;19.50;47.80;;;;;;4501307;31;20177;-64
2022/05/08 11:05:37;;;;;;;7.30;1.88;;;19.50;47.90;;;;;;4509410;31;20236;-64
2022/05/08 11:08:10;;;;;;;4.57;1.38;;;19.50;47.70;;;;;;4486503;31;20184;-64
2022/05/08 11:10:41;;;;;;;6.88;1.60;;;19.50;47.60;;;;;;4509163;31;20493;-64
2022/05/08 11:13:13;;;;;;;5.97;1.80;;;19.50;47.60;;;;;;4508593;31;20270;-64
2022/05/08 11:15:46;;;;;;;6.90;2.20;;;19.60;47.30;;;;;;4500739;31;20179;-64
2022/05/08 11:18:16;;;;;;;6.65;1.95;;;19.60;47.70;;;;;;4500993;31;20121;-64
2022/05/08 11:20:50;;;;;;;5.32;1.50;;;19.60;47.70;;;;;;4514212;31;20124;-63
2022/05/08 11:23:18;;;;;;;8.70;1.90;;;19.60;47.60;;;;;;4514414;31;20121;-64
2022/05/08 11:25:53;;;;;;;8.52;2.10;;;19.60;47.60;;;;;;4501482;31;36707;-65
2022/05/08 11:28:24;;;;;;;6.32;1.70;;;19.60;47.30;;;;;;4499713;31;20164;-64
2022/05/08 11:30:52;;;;;;;11.30;1.70;;;19.60;47.50;;;;;;4512644;31;20135;-64
2022/05/08 11:38:50;;;;;;;5.30;1.73;;;19.60;47.30;;;;;;4512859;31;20217;-64
2022/05/08 11:41:22;;;;;;;;;;;19.60;46.80;;;;;;4516285;31;20128;-64
2022/05/08 11:43:53;;;;;;;8.10;2.10;;;19.60;47.20;;;;;;4514422;31;20037;-64
2022/05/08 11:46:31;;;;;;;8.32;2.15;;;19.60;47.70;;;;;;4502198;31;20128;-64
2022/05/08 11:48:57;;;;;;;6.13;1.60;;;19.60;47.70;;;;;;4514121;31;20142;-64
2022/05/08 11:51:23;;;;;;;7.63;1.58;;;19.60;47.80;;;;;;4514546;31;20132;-64
2022/05/08 11:53:52;;;;;;;6.82;1.90;;;19.60;47.70;;;;;;4500950;31;20282;-64
2022/05/08 11:56:33;;;;;;;7.28;1.63;;;19.60;47.40;;;;;;4514294;31;20171;-64
2022/05/08 11:59:06;;;;;;;6.72;1.40;;;19.60;47.20;;;;;;4515849;31;20136;-64
2022/05/08 12:01:38;;;;;;;6.07;1.73;;;19.60;47.30;;;;;;4514199;31;20147;-63
2022/05/08 12:04:28;;;;;;;5.70;1.55;;;19.60;47.50;;;;;;4514988;31;20116;-63
2022/05/08 12:07:14;;;;;;;6.93;1.63;;;19.60;47.00;;;;;;4501027;31;20171;-63
2022/05/08 12:09:55;;;;;;;9.55;1.50;;;19.60;47.00;;;;;;4500884;31;20574;-63
2022/05/08 12:12:36;;;;;;;8.38;2.00;;;19.60;47.10;;;;;;4514883;31;20270;-63
2022/05/08 12:15:08;;;;;;;6.78;1.73;;;19.60;47.10;;;;;;4513767;31;20167;-63
2022/05/08 12:17:42;;;;;;;6.05;1.50;;;19.60;47.00;;;;;;4501103;31;20124;-63
2022/05/08 12:20:09;;;;;;;7.93;1.67;;;19.60;47.10;;;;;;4514186;31;20261;-62
2022/05/08 12:22:36;;;;;;;9.13;1.90;;;19.60;46.90;;;;;;4501087;31;20132;-63
2022/05/08 12:25:03;;;;;;;8.27;1.67;;;19.60;46.70;;;;;;4501027;31;20281;-63
2022/05/08 12:27:29;;;;;;;7.75;2.13;;;19.60;46.80;;;;;;4513477;31;20128;-63
2022/05/08 12:29:55;;;;;;;6.90;1.30;;;19.60;46.60;;;;;;4514683;31;20121;-63
2022/05/08 12:32:22;;;;;;;5.38;1.60;;;19.70;46.40;;;;;;4500445;31;20120;-63
2022/05/08 12:34:48;;;;;;;8.70;1.42;;;19.70;46.10;;;;;;4514305;31;20116;-63
2022/05/08 12:37:16;;;;;;;7.95;1.80;;;19.70;46.00;;;;;;4510478;31;20133;-62
2022/05/08 12:39:43;;;;;;;9.10;1.90;;;19.70;45.80;;;;;;4498980;31;20217;-63
2022/05/08 12:42:10;;;;;;;5.82;1.50;;;19.70;45.60;;;;;;4485281;31;20493;-63
2022/05/08 12:44:36;;;;;;;4.10;1.60;;;19.70;45.50;;;;;;4484174;31;20143;-63
2022/05/08 12:47:13;;;;;;;8.93;1.35;;;19.70;45.40;;;;;;4498485;31;20214;-63
2022/05/08 12:49:40;;;;;;;7.90;1.77;;;19.80;45.10;;;;;;4484097;31;20144;-63
2022/05/08 12:52:08;;;;;;;6.22;1.90;;;19.80;45.20;;;;;;4484888;31;20140;-62
2022/05/08 12:54:34;;;;;;;7.80;1.73;;;19.80;45.10;;;;;;4484282;31;20164;-63
2022/05/08 12:57:02;;;;;;;9.10;2.15;;;19.80;44.90;;;;;;4498090;31;20140;-64
2022/05/08 12:59:47;;;;;;;8.25;2.00;;;19.80;44.90;;;;;;4497675;31;20144;-64
2022/05/08 13:02:15;;;;;;;9.77;2.10;;;19.80;45.00;;;;;;4486060;31;20140;-64
2022/05/08 13:04:43;;;;;;;7.25;1.60;;;19.80;45.40;;;;;;4484163;31;20133;-63
2022/05/08 13:07:09;;;;;;;4.22;1.50;;;19.80;45.70;;;;;;4497407;31;20124;-64
2022/05/08 13:09:36;;;;;;;7.95;1.60;;;19.80;46.10;;;;;;4497415;31;20159;-64
2022/05/08 13:12:03;;;;;;;5.88;1.50;;;19.80;46.30;;;;;;4497479;31;20144;-63
2022/05/08 13:14:31;;;;;;;5.15;1.42;;;19.70;46.40;;;;;;4484203;31;20198;-64
2022/05/08 13:16:57;;;;;;;4.18;1.38;;;19.70;46.50;;;;;;4484895;31;20274;-64
2022/05/08 13:19:23;;;;;;;7.38;1.45;;;19.70;46.70;;;;;;4483849;31;20160;-64
2022/05/08 13:21:50;;;;;;;11.50;1.55;;;19.70;46.80;;;;;;4497562;31;20568;-63